createdAt,value
2023-01-22T00:01:31.366Z,101548.72
2023-01-22T00:04:03.236Z,101541.41
2023-01-22T00:06:38.180Z,101541.41
2023-01-22T00:09:06.327Z,101525.38
2023-01-22T00:11:36.340Z,101538.84
2023-01-22T00:14:08.172Z,101523.53
2023-01-22T00:16:41.754Z,101523.66
2023-01-22T00:19:15.791Z,101523.53
2023-01-22T00:21:49.048Z,101513.75
2023-01-22T00:24:20.178Z,101516.44
2023-01-22T00:26:51.245Z,101510.78
2023-01-22T00:29:26.507Z,101512.50
2023-01-22T00:31:56.236Z,101503.59
2023-01-22T00:34:26.166Z,101510.78
2023-01-22T00:36:55.962Z,101501.75
2023-01-22T00:39:29.323Z,101507.13
2023-01-22T00:42:07.165Z,101506.88
2023-01-22T00:44:38.073Z,101510.56
2023-01-22T00:47:06.425Z,101505.19
2023-01-22T00:49:43.504Z,101508.34
2023-01-22T00:52:17.423Z,101502.00
2023-01-22T00:54:52.078Z,101495.91
2023-01-22T00:57:27.341Z,101491.38
2023-01-22T01:00:02.194Z,101491.50
2023-01-22T01:02:32.782Z,101473.38
2023-01-22T01:05:11.168Z,101483.44
2023-01-22T01:07:42.761Z,101484.88
2023-01-22T01:10:11.455Z,101484.66
2023-01-22T01:12:42.022Z,101486.25
2023-01-22T01:15:10.653Z,101480.97
2023-01-22T01:17:42.003Z,101481.25
2023-01-22T01:20:18.747Z,101485.50
2023-01-22T01:22:53.193Z,101483.94
2023-01-22T01:25:30.388Z,101485.50
2023-01-22T01:28:07.184Z,101485.50
2023-01-22T01:30:41.498Z,101485.63
2023-01-22T01:33:10.200Z,101474.13
2023-01-22T01:35:39.826Z,101468.75
2023-01-22T01:38:08.169Z,101468.75
2023-01-22T01:40:36.948Z,101466.06
2023-01-22T01:43:05.541Z,101461.66
2023-01-22T01:45:34.587Z,101468.25
2023-01-22T01:48:07.555Z,101461.91
2023-01-22T01:50:36.461Z,101455.69
2023-01-22T01:53:06.401Z,101446.75
2023-01-22T01:55:36.476Z,101453.13
2023-01-22T01:58:06.519Z,101452.25
2023-01-22T02:00:36.438Z,101457.50
2023-01-22T02:03:05.252Z,101462.41
2023-01-22T02:05:36.061Z,101462.16
2023-01-22T02:08:06.853Z,101458.50
2023-01-22T02:10:35.022Z,101460.56
2023-01-22T02:13:07.630Z,101456.78
2023-01-22T02:15:35.863Z,101464.09
2023-01-22T02:18:05.662Z,101477.44
2023-01-22T02:20:36.627Z,101476.00
2023-01-22T02:23:05.236Z,101467.19
2023-01-22T02:25:34.451Z,101473.19
2023-01-22T02:28:03.255Z,101468.03
2023-01-22T02:30:31.828Z,101457.50
2023-01-22T02:33:00.089Z,101453.59
2023-01-22T02:35:28.344Z,101449.94
2023-01-22T02:37:58.396Z,101444.44
2023-01-22T02:40:26.831Z,101443.81
2023-01-22T02:42:55.545Z,101441.03
2023-01-22T02:45:23.688Z,101431.22
2023-01-22T02:47:53.033Z,101430.34
2023-01-22T02:50:21.305Z,101435.50
2023-01-22T02:52:49.519Z,101420.47
2023-01-22T02:55:19.678Z,101425.97
2023-01-22T02:57:47.785Z,101424.00
2023-01-22T03:00:17.044Z,101426.69
2023-01-22T03:02:45.487Z,101425.84
2023-01-22T03:05:14.340Z,101421.44
2023-01-22T03:07:45.362Z,101418.63
2023-01-22T03:10:15.226Z,101431.09
2023-01-22T03:13:03.319Z,101429.50
2023-01-22T03:15:49.211Z,101435.16
2023-01-22T03:18:35.255Z,101433.03
2023-01-22T03:21:17.070Z,101448.22
2023-01-22T03:23:46.096Z,101446.41
2023-01-22T03:26:15.824Z,101455.56
2023-01-22T03:28:46.475Z,101468.03
2023-01-22T03:31:15.402Z,101463.38
2023-01-22T03:33:44.273Z,101472.31
2023-01-22T03:36:14.411Z,101470.50
2023-01-22T03:38:47.725Z,101458.97
2023-01-22T03:41:20.258Z,101440.91
2023-01-22T03:43:51.394Z,101396.84
2023-01-22T03:46:22.814Z,101370.94
2023-01-22T03:48:55.213Z,101375.31
2023-01-22T03:51:23.864Z,101394.16
2023-01-22T03:53:52.078Z,101402.09
2023-01-22T03:56:21.374Z,101402.22
2023-01-22T03:58:52.622Z,101403.94
2023-01-22T04:01:22.622Z,101412.75
2023-01-22T04:03:51.902Z,101436.72
2023-01-22T04:06:22.359Z,101438.53
2023-01-22T04:08:51.625Z,101435.00
2023-01-22T04:11:23.100Z,101443.78
2023-01-22T04:13:52.946Z,101425.09
2023-01-22T04:16:22.254Z,101408.47
2023-01-22T04:19:25.571Z,101411.50
2023-01-22T04:22:08.577Z,101408.59
2023-01-22T04:24:37.172Z,101408.69
2023-01-22T04:27:06.708Z,101398.53
2023-01-22T04:29:36.471Z,101417.88
2023-01-22T04:32:07.095Z,101426.16
2023-01-22T04:34:53.904Z,101432.03
2023-01-22T04:37:25.636Z,101447.34
2023-01-22T04:39:54.076Z,101440.25
2023-01-22T04:42:22.158Z,101459.66
2023-01-22T04:44:52.071Z,101463.09
2023-01-22T04:47:20.209Z,101457.97
2023-01-22T04:49:48.552Z,101462.13
2023-01-22T04:52:17.777Z,101452.22
2023-01-22T04:54:46.106Z,101465.53
2023-01-22T04:57:14.817Z,101469.19
2023-01-22T04:59:43.032Z,101475.59
2023-01-22T05:02:12.948Z,101483.16
2023-01-22T05:04:41.404Z,101465.66
2023-01-22T05:07:09.589Z,101462.97
2023-01-22T05:09:38.634Z,101456.88
2023-01-22T05:12:07.218Z,101451.59
2023-01-22T05:14:41.431Z,101453.56
2023-01-22T05:17:10.155Z,101462.59
2023-01-22T05:19:39.874Z,101462.34
2023-01-22T05:22:13.228Z,101460.41
2023-01-22T05:24:41.488Z,101462.88
2023-01-22T05:27:10.064Z,101461.50
2023-01-22T05:29:49.216Z,101444.78
2023-01-22T05:32:40.162Z,101450.16
2023-01-22T05:35:11.008Z,101448.44
2023-01-22T05:37:40.799Z,101443.78
2023-01-22T05:40:09.896Z,101452.47
2023-01-22T05:42:38.349Z,101456.13
2023-01-22T05:45:08.277Z,101446.97
2023-01-22T05:47:41.280Z,101452.59
2023-01-22T05:50:33.633Z,101455.88
2023-01-22T05:53:10.499Z,101460.16
2023-01-22T05:55:39.432Z,101459.31
2023-01-22T05:58:07.619Z,101466.50
2023-01-22T06:00:36.980Z,101477.78
2023-01-22T06:03:09.271Z,101476.31
2023-01-22T06:05:47.431Z,101481.44
2023-01-22T06:08:16.558Z,101482.44
2023-01-22T06:10:51.972Z,101485.72
2023-01-22T06:13:21.220Z,101491.94
2023-01-22T06:15:54.771Z,101498.19
2023-01-22T06:18:43.104Z,101482.06
2023-01-22T06:21:14.273Z,101485.13
2023-01-22T06:23:42.911Z,101488.28
2023-01-22T06:26:11.021Z,101490.00
2023-01-22T06:28:40.265Z,101488.28
2023-01-22T06:31:08.624Z,101488.28
2023-01-22T06:33:38.837Z,101478.59
2023-01-22T06:36:07.573Z,101465.78
2023-01-22T06:38:38.177Z,101472.13
2023-01-22T06:41:08.846Z,101459.41
2023-01-22T06:43:37.735Z,101465.63
2023-01-22T06:46:06.741Z,101464.81
2023-01-22T06:48:55.218Z,101467.34
2023-01-22T06:51:23.630Z,101466.47
2023-01-22T06:53:53.912Z,101465.63
2023-01-22T06:56:22.182Z,101462.81
2023-01-22T06:58:51.196Z,101475.06
2023-01-22T07:01:19.612Z,101489.47
2023-01-22T07:03:47.868Z,101483.84
2023-01-22T07:06:18.889Z,101478.47
2023-01-22T07:08:47.030Z,101480.88
2023-01-22T07:11:16.876Z,101486.41
2023-01-22T07:13:45.301Z,101485.03
2023-01-22T07:16:13.492Z,101488.63
2023-01-22T07:18:41.551Z,101480.16
2023-01-22T07:21:09.887Z,101489.06
2023-01-22T07:23:38.077Z,101484.81
2023-01-22T07:26:06.325Z,101496.31
2023-01-22T07:28:35.916Z,101497.63
2023-01-22T07:31:05.424Z,101493.34
2023-01-22T07:33:33.832Z,101493.97
2023-01-22T07:36:02.348Z,101496.78
2023-01-22T07:38:31.212Z,101481.47
2023-01-22T07:41:02.099Z,101496.53
2023-01-22T07:43:30.626Z,101496.78
2023-01-22T07:46:01.970Z,101499.94
2023-01-22T07:48:30.247Z,101500.19
2023-01-22T07:51:00.325Z,101496.53
2023-01-22T07:53:28.981Z,101506.19
2023-01-22T07:55:57.167Z,101510.72
2023-01-22T07:58:25.516Z,101516.09
2023-01-22T08:00:53.638Z,101519.53
2023-01-22T08:03:23.444Z,101517.56
2023-01-22T08:05:51.803Z,101516.44
2023-01-22T08:08:21.644Z,101529.91
2023-01-22T08:10:49.793Z,101531.63
2023-01-22T08:13:17.977Z,101529.78
2023-01-22T08:15:46.727Z,101528.06
2023-01-22T08:18:15.356Z,101530.50
2023-01-22T08:20:45.993Z,101520.75
2023-01-22T08:23:14.373Z,101509.69
2023-01-22T08:25:42.854Z,101519.59
2023-01-22T08:28:11.049Z,101521.31
2023-01-22T08:30:46.218Z,101524.16
2023-01-22T08:33:16.009Z,101532.97
2023-01-22T08:35:46.128Z,101536.38
2023-01-22T08:38:14.495Z,101534.28
2023-01-22T08:40:42.628Z,101540.78
2023-01-22T08:43:10.718Z,101533.28
2023-01-22T08:45:39.076Z,101542.38
2023-01-22T08:48:07.494Z,101542.13
2023-01-22T08:50:35.956Z,101532.06
2023-01-22T08:53:05.697Z,101533.66
2023-01-22T08:55:33.948Z,101527.41
2023-01-22T08:58:02.229Z,101532.66
2023-01-22T09:00:30.590Z,101519.06
2023-01-22T09:03:00.203Z,101528.59
2023-01-22T09:05:28.760Z,101525.78
2023-01-22T09:07:56.944Z,101531.88
2023-01-22T09:10:26.639Z,101539.97
2023-01-22T09:12:55.116Z,101542.25
2023-01-22T09:15:23.464Z,101544.81
2023-01-22T09:17:51.659Z,101543.16
2023-01-22T09:20:20.567Z,101561.00
2023-01-22T09:22:49.009Z,101554.50
2023-01-22T09:25:17.232Z,101548.00
2023-01-22T09:27:46.948Z,101553.13
2023-01-22T09:30:16.130Z,101563.06
2023-01-22T09:32:44.856Z,101561.09
2023-01-22T09:35:15.552Z,101551.19
2023-01-22T09:37:44.704Z,101559.72
2023-01-22T09:40:20.604Z,101562.28
2023-01-22T09:42:50.676Z,101567.53
2023-01-22T09:45:21.020Z,101568.28
2023-01-22T09:47:51.209Z,101563.47
2023-01-22T09:50:21.240Z,101562.63
2023-01-22T09:52:51.121Z,101560.78
2023-01-22T09:55:20.502Z,101569.72
2023-01-22T09:57:49.592Z,101555.19
2023-01-22T10:00:22.175Z,101552.22
2023-01-22T10:02:54.020Z,101560.75
2023-01-22T10:05:25.633Z,101568.00
2023-01-22T10:07:55.859Z,101565.63
2023-01-22T10:10:24.768Z,101575.53
2023-01-22T10:12:55.039Z,101575.53
2023-01-22T10:15:25.692Z,101575.53
2023-01-22T10:17:56.852Z,101571.59
2023-01-22T10:20:25.545Z,101572.34
2023-01-22T10:22:55.482Z,101582.13
2023-01-22T10:25:23.653Z,101584.97
2023-01-22T10:27:58.421Z,101592.53
2023-01-22T10:30:28.853Z,101585.88
2023-01-22T10:33:01.200Z,101590.91
2023-01-22T10:35:30.992Z,101585.03
2023-01-22T10:37:59.669Z,101582.06
2023-01-22T10:40:31.039Z,101588.78
2023-01-22T10:43:03.243Z,101596.22
2023-01-22T10:45:33.394Z,101595.94
2023-01-22T10:48:05.485Z,101595.69
2023-01-22T10:50:34.184Z,101598.56
2023-01-22T10:53:04.196Z,101592.16
2023-01-22T10:55:34.423Z,101599.19
2023-01-22T10:58:04.118Z,101604.59
2023-01-22T11:00:51.832Z,101602.88
2023-01-22T11:03:22.570Z,101599.34
2023-01-22T11:05:54.648Z,101608.03
2023-01-22T11:08:25.718Z,101609.44
2023-01-22T11:10:56.771Z,101609.59
2023-01-22T11:13:27.244Z,101608.19
2023-01-22T11:16:00.590Z,101603.81
2023-01-22T11:18:31.697Z,101607.50
2023-01-22T11:21:00.931Z,101604.06
2023-01-22T11:23:34.898Z,101613.47
2023-01-22T11:26:07.212Z,101602.66
2023-01-22T11:28:41.885Z,101601.25
2023-01-22T11:31:25.193Z,101596.59
2023-01-22T11:34:18.614Z,101586.78
2023-01-22T11:36:49.107Z,101591.63
2023-01-22T11:39:23.991Z,101589.94
2023-01-22T11:41:57.553Z,101579.84
2023-01-22T11:44:40.598Z,101589.53
2023-01-22T11:47:21.133Z,101575.75
2023-01-22T11:49:58.170Z,101577.03
2023-01-22T11:52:34.914Z,101579.19
2023-01-22T11:55:11.921Z,101575.50
2023-01-22T11:57:43.608Z,101586.03
2023-01-22T12:00:22.855Z,101580.06
2023-01-22T12:03:01.905Z,101578.94
2023-01-22T12:05:37.924Z,101583.78
2023-01-22T12:08:14.836Z,101576.38
2023-01-22T12:10:54.870Z,101580.50
2023-01-22T12:13:28.992Z,101571.13
2023-01-22T12:16:04.615Z,101566.03
2023-01-22T12:18:57.608Z,101555.25
2023-01-22T12:21:34.579Z,101564.03
2023-01-22T12:24:05.400Z,101565.19
2023-01-22T12:26:35.547Z,101563.63
2023-01-22T12:29:06.412Z,101565.06
2023-01-22T12:31:37.223Z,101568.19
2023-01-22T12:34:08.209Z,101567.91
2023-01-22T12:36:38.240Z,101572.19
2023-01-22T12:39:11.533Z,101568.75
2023-01-22T12:41:45.683Z,101566.47
2023-01-22T12:44:33.155Z,101558.50
2023-01-22T12:47:09.374Z,101560.50
2023-01-22T12:49:46.004Z,101556.53
2023-01-22T12:52:48.233Z,101557.34
2023-01-22T12:55:24.134Z,101561.63
2023-01-22T12:57:52.381Z,101561.31
2023-01-22T13:00:30.666Z,101556.38
2023-01-22T13:02:59.666Z,101553.06
2023-01-22T13:05:47.293Z,101549.09
2023-01-22T13:08:28.474Z,101547.38
2023-01-22T13:10:58.029Z,101546.84
2023-01-22T13:13:29.370Z,101553.94
2023-01-22T13:16:00.470Z,101561.06
2023-01-22T13:18:31.643Z,101549.13
2023-01-22T13:21:02.915Z,101556.25
2023-01-22T13:23:34.749Z,101555.38
2023-01-22T13:26:04.297Z,101550.84
2023-01-22T13:28:32.702Z,101552.22
2023-01-22T13:31:02.240Z,101556.66
2023-01-22T13:33:30.505Z,101549.13
2023-01-22T13:35:59.509Z,101549.69
2023-01-22T13:38:29.838Z,101547.97
2023-01-22T13:41:00.873Z,101541.56
2023-01-22T13:43:29.792Z,101539.59
2023-01-22T13:45:58.427Z,101551.88
2023-01-22T13:48:27.489Z,101552.84
2023-01-22T13:50:57.059Z,101550.69
2023-01-22T13:53:27.329Z,101545.16
2023-01-22T13:55:55.804Z,101547.44
2023-01-22T13:58:49.641Z,101539.03
2023-01-22T14:01:31.271Z,101540.03
2023-01-22T14:04:01.246Z,101538.06
2023-01-22T14:06:31.636Z,101536.63
2023-01-22T14:09:00.217Z,101533.78
2023-01-22T14:11:38.866Z,101530.94
2023-01-22T14:14:17.718Z,101526.91
2023-01-22T14:16:48.287Z,101528.91
2023-01-22T14:19:16.513Z,101521.50
2023-01-22T14:21:45.638Z,101513.84
2023-01-22T14:24:15.965Z,101517.53
2023-01-22T14:26:44.215Z,101515.41
2023-01-22T14:29:12.399Z,101514.13
2023-01-22T14:31:42.178Z,101517.09
2023-01-22T14:34:11.246Z,101512.41
2023-01-22T14:36:39.831Z,101518.94
2023-01-22T14:39:07.858Z,101522.97
2023-01-22T14:41:35.992Z,101528.63
2023-01-22T14:44:04.624Z,101526.34
2023-01-22T14:46:32.674Z,101528.34
2023-01-22T14:49:03.384Z,101527.19
2023-01-22T14:51:32.345Z,101532.91
2023-01-22T14:54:00.898Z,101532.75
2023-01-22T14:56:29.416Z,101527.50
2023-01-22T14:58:58.317Z,101523.06
2023-01-22T15:01:26.463Z,101533.19
2023-01-22T15:03:56.107Z,101529.47
2023-01-22T15:06:27.289Z,101529.75
2023-01-22T15:08:55.475Z,101524.06
2023-01-22T15:11:26.532Z,101524.50
2023-01-22T15:13:55.821Z,101529.22
2023-01-22T15:16:25.106Z,101529.06
2023-01-22T15:18:55.073Z,101536.72
2023-01-22T15:21:25.866Z,101541.44
2023-01-22T15:23:53.998Z,101545.13
2023-01-22T15:26:24.845Z,101548.41
2023-01-22T15:28:53.736Z,101553.38
2023-01-22T15:31:22.158Z,101559.22
2023-01-22T15:33:51.163Z,101560.06
2023-01-22T15:36:19.390Z,101563.88
2023-01-22T15:38:50.992Z,101564.91
2023-01-22T15:41:20.344Z,101565.88
2023-01-22T15:43:51.055Z,101576.69
2023-01-22T15:46:20.219Z,101574.69
2023-01-22T15:48:49.771Z,101573.00
2023-01-22T15:51:19.264Z,101566.72
2023-01-22T15:53:52.242Z,101571.00
2023-01-22T15:56:21.016Z,101566.44
2023-01-22T15:58:51.287Z,101573.38
2023-01-22T16:01:20.135Z,101586.34
2023-01-22T16:03:48.360Z,101585.78
2023-01-22T16:06:18.066Z,101585.78
2023-01-22T16:08:47.067Z,101591.06
2023-01-22T16:11:17.119Z,101594.63
2023-01-22T16:13:45.331Z,101600.03
2023-01-22T16:16:17.205Z,101607.00
2023-01-22T16:18:46.027Z,101608.41
2023-01-22T16:21:14.784Z,101615.34
2023-01-22T16:23:47.062Z,101603.53
2023-01-22T16:26:17.720Z,101612.75
2023-01-22T16:28:46.266Z,101610.47
2023-01-22T16:31:17.460Z,101622.72
2023-01-22T16:33:46.643Z,101617.00
2023-01-22T16:36:15.681Z,101620.44
2023-01-22T16:38:43.843Z,101619.69
2023-01-22T16:41:25.624Z,101618.00
2023-01-22T16:43:54.735Z,101621.28
2023-01-22T16:46:24.162Z,101621.25
2023-01-22T16:48:56.722Z,101617.84
2023-01-22T16:51:25.742Z,101611.84
2023-01-22T16:53:54.683Z,101625.47
2023-01-22T16:56:24.311Z,101626.22
2023-01-22T16:58:52.414Z,101633.16
2023-01-22T17:01:20.703Z,101618.91
2023-01-22T17:03:49.440Z,101623.59
2023-01-22T17:06:23.323Z,101619.91
2023-01-22T17:08:52.177Z,101626.31
2023-01-22T17:11:20.820Z,101617.03
2023-01-22T17:13:50.417Z,101622.88
2023-01-22T17:16:18.940Z,101624.59
2023-01-22T17:18:47.041Z,101626.44
2023-01-22T17:21:15.970Z,101635.66
2023-01-22T17:23:44.185Z,101639.88
2023-01-22T17:26:13.486Z,101623.41
2023-01-22T17:28:41.789Z,101634.50
2023-01-22T17:31:12.144Z,101631.31
2023-01-22T17:33:40.582Z,101638.44
2023-01-22T17:36:10.527Z,101643.56
2023-01-22T17:38:38.961Z,101641.00
2023-01-22T17:41:08.847Z,101640.66
2023-01-22T17:43:38.744Z,101635.28
2023-01-22T17:46:12.428Z,101640.66
2023-01-22T17:48:40.995Z,101633.59
2023-01-22T17:51:10.114Z,101635.56
2023-01-22T17:53:39.295Z,101642.41
2023-01-22T17:56:10.573Z,101652.84
2023-01-22T17:58:42.130Z,101649.31
2023-01-22T18:01:12.961Z,101648.59
2023-01-22T18:03:41.350Z,101640.25
2023-01-22T18:06:10.084Z,101644.91
2023-01-22T18:08:39.640Z,101647.59
2023-01-22T18:11:08.633Z,101655.69
2023-01-22T18:13:38.127Z,101663.94
2023-01-22T18:16:07.577Z,101674.44
2023-01-22T18:18:37.267Z,101677.28
2023-01-22T18:21:06.968Z,101681.31
2023-01-22T18:23:35.010Z,101676.56
2023-01-22T18:26:04.908Z,101678.53
2023-01-22T18:28:33.493Z,101681.97
2023-01-22T18:31:04.946Z,101694.34
2023-01-22T18:33:34.362Z,101694.50
2023-01-22T18:36:07.094Z,101696.31
2023-01-22T18:38:36.809Z,101696.19
2023-01-22T18:41:06.079Z,101703.44
2023-01-22T18:43:34.163Z,101707.38
2023-01-22T18:46:05.873Z,101714.63
2023-01-22T18:48:33.994Z,101709.94
2023-01-22T18:51:04.173Z,101704.53
2023-01-22T18:53:32.841Z,101708.00
2023-01-22T18:56:04.155Z,101704.88
2023-01-22T18:58:34.293Z,101704.53
2023-01-22T19:01:08.948Z,101703.97
2023-01-22T19:03:37.933Z,101706.81
2023-01-22T19:06:13.669Z,101702.81
2023-01-22T19:08:42.989Z,101706.41
2023-01-22T19:11:12.355Z,101712.38
2023-01-22T19:13:41.148Z,101716.31
2023-01-22T19:16:11.043Z,101722.47
2023-01-22T19:18:40.219Z,101722.19
2023-01-22T19:21:12.066Z,101727.59
2023-01-22T19:23:41.246Z,101724.91
2023-01-22T19:26:10.961Z,101722.72
2023-01-22T19:28:39.943Z,101723.31
2023-01-22T19:31:16.483Z,101724.19
2023-01-22T19:33:44.743Z,101727.13
2023-01-22T19:36:16.602Z,101723.84
2023-01-22T19:38:45.268Z,101724.94
2023-01-22T19:41:13.488Z,101728.97
2023-01-22T19:43:42.112Z,101736.09
2023-01-22T19:46:11.825Z,101731.19
2023-01-22T19:48:40.186Z,101742.59
2023-01-22T19:51:09.937Z,101735.75
2023-01-22T19:53:39.800Z,101740.16
2023-01-22T19:56:16.666Z,101743.56
2023-01-22T19:58:44.979Z,101738.94
2023-01-22T20:01:13.746Z,101742.13
2023-01-22T20:03:41.892Z,101743.72
2023-01-22T20:06:11.193Z,101748.25
2023-01-22T20:08:40.973Z,101755.38
2023-01-22T20:11:10.016Z,101754.50
2023-01-22T20:13:38.943Z,101757.19
2023-01-22T20:16:07.941Z,101759.91
2023-01-22T20:18:36.540Z,101760.50
2023-01-22T20:21:05.047Z,101766.19
2023-01-22T20:23:33.150Z,101762.47
2023-01-22T20:26:07.724Z,101762.47
2023-01-22T20:28:35.953Z,101758.19
2023-01-22T20:31:05.281Z,101762.72
2023-01-22T20:33:33.963Z,101753.94
2023-01-22T20:36:05.161Z,101754.91
2023-01-22T20:38:33.651Z,101762.28
2023-01-22T20:41:04.828Z,101762.50
2023-01-22T20:43:33.686Z,101760.31
2023-01-22T20:46:02.769Z,101762.16
2023-01-22T20:48:32.199Z,101762.03
2023-01-22T20:51:00.294Z,101762.03
2023-01-22T20:53:29.107Z,101765.69
2023-01-22T20:56:03.263Z,101770.97
2023-01-22T20:58:33.063Z,101776.34
2023-01-22T21:01:04.549Z,101774.91
2023-01-22T21:03:32.903Z,101772.34
2023-01-22T21:06:08.735Z,101776.34
2023-01-22T21:08:41.049Z,101778.22
2023-01-22T21:11:12.320Z,101781.03
2023-01-22T21:13:42.373Z,101775.25
2023-01-22T21:16:12.240Z,101784.31
2023-01-22T21:18:45.555Z,101781.75
2023-01-22T21:21:17.760Z,101779.66
2023-01-22T21:23:46.413Z,101780.91
2023-01-22T21:26:15.718Z,101788.00
2023-01-22T21:28:46.384Z,101786.56
2023-01-22T21:31:15.639Z,101783.47
2023-01-22T21:33:44.613Z,101786.03
2023-01-22T21:36:13.533Z,101793.88
2023-01-22T21:38:41.976Z,101791.31
2023-01-22T21:41:12.360Z,101789.72
2023-01-22T21:43:59.110Z,101784.31
2023-01-22T21:46:31.145Z,101784.59
2023-01-22T21:49:01.437Z,101793.16
2023-01-22T21:51:30.351Z,101782.59
2023-01-22T21:53:59.733Z,101796.34
2023-01-22T21:56:32.638Z,101798.56
2023-01-22T21:59:02.936Z,101797.81
2023-01-22T22:01:34.392Z,101801.38
2023-01-22T22:04:02.637Z,101808.34
2023-01-22T22:06:31.576Z,101813.28
2023-01-22T22:09:01.301Z,101820.38
2023-01-22T22:11:30.071Z,101816.44
2023-01-22T22:13:58.305Z,101816.72
2023-01-22T22:16:27.002Z,101811.94
2023-01-22T22:18:57.762Z,101812.28
2023-01-22T22:21:26.821Z,101825.56
2023-01-22T22:23:58.073Z,101817.31
2023-01-22T22:26:27.075Z,101824.09
2023-01-22T22:28:55.855Z,101829.50
2023-01-22T22:31:26.732Z,101828.63
2023-01-22T22:33:57.834Z,101827.75
2023-01-22T22:36:31.566Z,101823.09
2023-01-22T22:39:06.542Z,101828.47
2023-01-22T22:41:36.248Z,101823.34
2023-01-22T22:44:04.539Z,101837.84
2023-01-22T22:46:33.366Z,101832.53
2023-01-22T22:49:03.142Z,101820.91
2023-01-22T22:51:35.291Z,101823.47
2023-01-22T22:54:05.631Z,101826.78
2023-01-22T22:56:33.887Z,101827.75
2023-01-22T22:59:03.334Z,101820.66
2023-01-22T23:01:33.777Z,101830.59
2023-01-22T23:04:02.379Z,101822.63
2023-01-22T23:06:32.030Z,101828.03
2023-01-22T23:09:12.450Z,101826.31
2023-01-22T23:11:42.077Z,101832.53
2023-01-22T23:14:10.941Z,101841.66
2023-01-22T23:16:44.939Z,101841.28
2023-01-22T23:19:15.874Z,101846.69
2023-01-22T23:21:44.331Z,101837.09
2023-01-22T23:24:15.594Z,101830.97
2023-01-22T23:26:44.896Z,101831.13
2023-01-22T23:29:15.591Z,101817.81
2023-01-22T23:31:48.782Z,101827.41
2023-01-22T23:34:22.241Z,101828.28
2023-01-22T23:36:50.769Z,101827.06
2023-01-22T23:39:21.392Z,101826.03
2023-01-22T23:41:49.843Z,101812.81
2023-01-22T23:44:17.916Z,101813.56
2023-01-22T23:46:46.077Z,101816.63
2023-01-22T23:49:14.373Z,101826.91
2023-01-22T23:51:44.435Z,101836.25
2023-01-22T23:54:13.085Z,101834.13
2023-01-22T23:56:42.932Z,101825.47
2023-01-22T23:59:11.522Z,101831.56
